CheckWX is a tool to help pilots better visualize weather data.  It is not intended as a substitute for an official pre-flight weather briefing.

04:38:40 UTC

KHRO TAF
Boone County Airport
Harrison, Arkansas, USA
KHRO 222330Z 2300/2324 VRB04KT P6SM SKC FM231500 13008KT P6SM BKN250 FM231800 14016KT P6SM OVC100 PROB30 2320/2324 -SHRA OVC040

Mar-23@
00:00 UTC

Mar-23 @ 00:00 UTC

Mar-23@
15:00 UTC

Mar-23 @ 15:00 UTC

KHRO 222330Z 2300/2324 VRB04KT P6SM SKC
Wind
  • Variable at 4 KTS
Cloud Levels
  • Clear skies

Mar-23@
15:00 UTC

Mar-23 @ 15:00 UTC

Mar-23@
18:00 UTC

Mar-23 @ 18:00 UTC

FM231500 13008KT P6SM BKN250

From

From Standard forecast or significant change

Wind
  • 130° at 8 KTS
Cloud Levels
  • Broken at 25,000' AGL

Mar-23@
18:00 UTC

Mar-23 @ 18:00 UTC

Mar-24@
00:00 UTC

Mar-24 @ 00:00 UTC

FM231800 14016KT P6SM OVC100

From

From Standard forecast or significant change

Wind
  • 140° at 16 KTS
Cloud Levels
  • Overcast at 10,000' AGL

Mar-23@
20:00 UTC

Mar-23 @ 20:00 UTC

Mar-24@
00:00 UTC

Mar-24 @ 00:00 UTC

PROB30 2320/2324 -SHRA OVC040

Probable - 30% Likelihood

Probable - 30% Likelihood during this time.

Conditions
Light Rain
Cloud Levels
  • Overcast at 4,000' AGL